createdAt,value
2022-10-21T00:01:16.090Z,8.70
2022-10-21T00:05:19.054Z,9.07
2022-10-21T00:09:21.772Z,9.80
2022-10-21T00:13:27.002Z,9.45
2022-10-21T00:17:29.717Z,9.50
2022-10-21T00:21:32.419Z,9.40
2022-10-21T00:25:35.160Z,10.02
2022-10-21T00:29:39.187Z,9.90
2022-10-21T00:33:42.556Z,9.02
2022-10-21T00:37:45.302Z,8.90
2022-10-21T00:41:48.010Z,10.02
2022-10-21T00:45:56.599Z,8.73
2022-10-21T00:50:02.215Z,9.77
2022-10-21T00:54:06.703Z,8.53
2022-10-21T00:58:09.483Z,8.25
2022-10-21T01:02:13.718Z,8.80
2022-10-21T01:06:17.273Z,9.55
2022-10-21T01:10:20.028Z,10.15
2022-10-21T01:14:41.240Z,8.35
2022-10-21T01:18:53.071Z,7.88
2022-10-21T01:23:35.201Z,8.02
2022-10-21T01:27:49.178Z,8.23
2022-10-21T01:31:59.133Z,7.95
2022-10-21T01:36:10.902Z,7.45
2022-10-21T01:40:19.299Z,7.55
2022-10-21T01:44:25.422Z,8.20
2022-10-21T01:48:33.767Z,8.18
2022-10-21T01:52:36.832Z,8.35
2022-10-21T01:56:42.062Z,8.38
2022-10-21T02:00:45.897Z,8.40
2022-10-21T02:04:51.935Z,9.77
2022-10-21T02:08:54.789Z,8.15
2022-10-21T02:13:01.130Z,8.35
2022-10-21T02:17:05.228Z,8.20
2022-10-21T02:21:12.898Z,7.90
2022-10-21T02:25:19.502Z,8.18
2022-10-21T02:33:34.004Z,7.78
2022-10-21T02:37:44.530Z,7.93
2022-10-21T02:41:49.504Z,8.65
2022-10-21T02:45:55.477Z,8.80
2022-10-21T02:49:58.161Z,9.57
2022-10-21T02:54:02.270Z,8.95
2022-10-21T02:58:04.950Z,9.50
2022-10-21T03:02:07.659Z,8.30
2022-10-21T03:06:10.385Z,9.98
2022-10-21T03:10:14.494Z,8.85
2022-10-21T03:14:17.292Z,9.27
2022-10-21T03:18:20.486Z,8.70
2022-10-21T03:22:23.258Z,8.48
2022-10-21T03:26:27.342Z,8.77
2022-10-21T03:30:30.019Z,9.77
2022-10-21T03:34:32.798Z,9.82
2022-10-21T03:38:35.727Z,9.30
2022-10-21T03:42:40.257Z,9.10
2022-10-21T03:46:43.463Z,8.93
2022-10-21T03:50:46.163Z,8.68
2022-10-21T03:54:48.854Z,8.90
2022-10-21T03:58:57.700Z,9.13
2022-10-21T04:03:01.318Z,8.43
2022-10-21T04:07:04.030Z,7.95
2022-10-21T04:11:06.886Z,8.48
2022-10-21T04:15:13.687Z,8.88
2022-10-21T04:19:19.498Z,8.65
2022-10-21T04:23:22.372Z,8.40
2022-10-21T04:27:25.133Z,8.55
2022-10-21T04:31:36.001Z,9.23
2022-10-21T04:35:39.966Z,8.15
2022-10-21T04:39:42.650Z,8.95
2022-10-21T04:43:45.344Z,8.23
2022-10-21T04:47:49.391Z,8.93
2022-10-21T04:51:52.106Z,9.88
2022-10-21T04:55:54.838Z,8.70
2022-10-21T04:59:57.533Z,9.02
2022-10-21T05:04:01.601Z,7.63
2022-10-21T05:08:06.998Z,8.63
2022-10-21T05:12:13.299Z,9.00
2022-10-21T05:16:16.083Z,8.93
2022-10-21T05:20:20.202Z,8.07
2022-10-21T05:24:22.884Z,7.38
2022-10-21T05:28:26.209Z,9.88
2022-10-21T05:32:28.943Z,9.23
2022-10-21T05:36:32.957Z,9.07
2022-10-21T05:40:35.876Z,8.52
2022-10-21T05:44:38.578Z,9.13
2022-10-21T05:48:41.304Z,8.88
2022-10-21T05:52:45.439Z,9.13
2022-10-21T05:56:48.910Z,9.30
2022-10-21T06:00:51.795Z,10.13
2022-10-21T06:04:54.496Z,9.63
2022-10-21T06:08:58.731Z,9.35
2022-10-21T06:13:01.527Z,9.05
2022-10-21T06:17:04.504Z,9.38
2022-10-21T06:21:07.863Z,8.60
2022-10-21T06:25:11.928Z,8.70
2022-10-21T06:29:15.803Z,8.90
2022-10-21T06:33:21.126Z,8.65
2022-10-21T06:37:26.060Z,9.02
2022-10-21T06:41:30.171Z,8.52
2022-10-21T06:45:32.882Z,8.77
2022-10-21T06:49:35.610Z,8.77
2022-10-21T06:53:39.453Z,9.00
2022-10-21T06:57:43.837Z,9.93
2022-10-21T07:01:59.780Z,8.35
2022-10-21T07:06:03.632Z,8.70
2022-10-21T07:10:06.742Z,8.80
2022-10-21T07:14:12.023Z,9.07
2022-10-21T07:18:14.799Z,8.13
2022-10-21T07:22:17.880Z,7.45
2022-10-21T07:26:21.920Z,7.65
2022-10-21T07:30:26.011Z,6.80
2022-10-21T07:34:28.880Z,6.30
2022-10-21T07:38:31.659Z,5.97
2022-10-21T07:42:34.505Z,5.90
2022-10-21T07:46:40.723Z,5.85
2022-10-21T07:50:43.414Z,5.07
2022-10-21T07:54:46.147Z,7.10
2022-10-21T07:58:49.003Z,5.63
2022-10-21T08:02:56.267Z,6.25
2022-10-21T08:06:59.134Z,4.47
2022-10-21T08:11:02.291Z,4.80
2022-10-21T08:15:05.707Z,4.80
2022-10-21T08:19:10.339Z,4.47
2022-10-21T08:23:14.850Z,4.72
2022-10-21T08:27:17.679Z,5.63
2022-10-21T08:31:22.778Z,4.90
2022-10-21T08:35:27.439Z,5.10
2022-10-21T08:39:30.181Z,5.75
2022-10-21T08:43:35.050Z,4.30
2022-10-21T08:47:45.180Z,4.50
2022-10-21T08:51:55.079Z,4.38
2022-10-21T08:56:04.599Z,4.60
2022-10-21T09:00:15.023Z,4.45
2022-10-21T09:04:28.207Z,5.18
2022-10-21T09:08:38.763Z,4.10
2022-10-21T09:12:51.694Z,4.97
2022-10-21T09:17:03.176Z,5.72
2022-10-21T09:21:14.560Z,7.20
2022-10-21T09:25:22.488Z,7.70
2022-10-21T09:29:29.684Z,7.50
2022-10-21T09:33:34.767Z,7.68
2022-10-21T09:37:42.710Z,7.43
2022-10-21T09:41:55.432Z,7.20
2022-10-21T09:46:01.039Z,7.15
2022-10-21T09:50:09.817Z,6.53
2022-10-21T09:54:15.946Z,7.00
2022-10-21T09:58:27.747Z,7.53
2022-10-21T10:02:34.380Z,6.88
2022-10-21T10:06:39.333Z,7.30
2022-10-21T10:10:42.152Z,7.28
2022-10-21T10:14:47.587Z,7.65
2022-10-21T10:18:51.322Z,6.50
2022-10-21T10:23:19.516Z,8.70
2022-10-21T10:27:26.517Z,9.52
2022-10-21T10:31:34.679Z,24.95
2022-10-21T10:35:38.919Z,13.05
2022-10-21T10:39:42.169Z,8.77
2022-10-21T10:43:46.838Z,7.30
2022-10-21T10:47:55.922Z,8.52
2022-10-21T10:52:21.123Z,8.30
2022-10-21T10:56:27.138Z,6.65
2022-10-21T11:00:34.306Z,7.55
2022-10-21T11:04:41.204Z,7.00
2022-10-21T11:08:48.699Z,8.05
2022-10-21T11:12:51.481Z,7.38
2022-10-21T11:17:05.183Z,7.65
2022-10-21T11:21:19.491Z,8.07
2022-10-21T11:25:25.791Z,7.25
2022-10-21T11:29:41.712Z,7.75
2022-10-21T11:33:50.765Z,7.70
2022-10-21T11:38:14.577Z,7.35
2022-10-21T11:42:24.183Z,7.07
2022-10-21T11:46:40.144Z,7.43
2022-10-21T11:50:49.477Z,7.60
2022-10-21T11:55:14.577Z,7.30
2022-10-21T11:59:28.653Z,7.72
2022-10-21T12:03:52.278Z,7.15
2022-10-21T12:08:06.709Z,6.15
2022-10-21T12:12:14.148Z,5.78
2022-10-21T12:16:20.831Z,6.00
2022-10-21T12:20:26.881Z,5.75
2022-10-21T12:24:44.307Z,5.93
2022-10-21T12:28:56.485Z,5.45
2022-10-21T12:33:15.540Z,4.75
2022-10-21T12:37:46.560Z,5.25
2022-10-21T12:41:49.496Z,4.93
2022-10-21T12:46:10.114Z,4.50
2022-10-21T12:50:29.617Z,6.00
2022-10-21T12:54:41.839Z,5.90
2022-10-21T12:58:46.447Z,5.75
2022-10-21T13:03:02.687Z,5.55
2022-10-21T13:07:06.408Z,4.75
2022-10-21T13:11:22.791Z,4.38
2022-10-21T13:15:47.769Z,3.97
2022-10-21T13:19:53.851Z,4.30
2022-10-21T13:23:59.176Z,4.40
2022-10-21T13:28:06.368Z,3.70
2022-10-21T13:32:22.195Z,3.50
2022-10-21T13:36:39.519Z,3.58
2022-10-21T13:40:48.433Z,3.33
2022-10-21T13:44:53.675Z,3.97
2022-10-21T13:48:59.589Z,4.03
2022-10-21T13:53:22.259Z,8.70
2022-10-21T13:57:28.663Z,4.68
2022-10-21T14:01:45.180Z,7.85
2022-10-21T14:05:51.179Z,7.50
2022-10-21T14:09:57.963Z,4.45
2022-10-21T14:14:06.678Z,4.35
2022-10-21T14:18:09.692Z,7.70
2022-10-21T14:22:20.179Z,4.43
2022-10-21T14:26:26.797Z,3.10
2022-10-21T14:30:33.401Z,3.60
2022-10-21T14:34:37.154Z,3.25
2022-10-21T14:38:43.247Z,3.00
2022-10-21T14:42:50.970Z,5.25
2022-10-21T14:46:56.314Z,2.53
2022-10-21T14:51:01.365Z,2.25
2022-10-21T14:55:09.257Z,2.55
2022-10-21T14:59:23.412Z,2.38
2022-10-21T15:03:40.733Z,2.33
2022-10-21T15:07:43.432Z,3.47
2022-10-21T15:11:47.596Z,3.92
2022-10-21T15:15:54.457Z,2.88
2022-10-21T15:19:57.453Z,3.17
2022-10-21T15:24:00.858Z,2.17
2022-10-21T15:28:11.074Z,2.47
2022-10-21T15:32:19.258Z,2.70
2022-10-21T15:36:22.424Z,2.58
2022-10-21T15:40:25.118Z,2.85
2022-10-21T15:44:29.979Z,4.65
2022-10-21T15:48:34.081Z,7.55
2022-10-21T15:52:36.846Z,2.17
2022-10-21T15:56:40.222Z,2.00
2022-10-21T16:00:43.070Z,2.15
2022-10-21T16:04:47.294Z,2.67
2022-10-21T16:08:51.624Z,1.75
2022-10-21T16:12:55.568Z,2.15
2022-10-21T16:16:58.985Z,2.10
2022-10-21T16:21:03.039Z,2.70
2022-10-21T16:25:06.568Z,2.78
2022-10-21T16:29:11.688Z,2.20
2022-10-21T16:33:14.445Z,2.80
2022-10-21T16:37:24.475Z,7.25
2022-10-21T16:41:28.690Z,4.50
2022-10-21T16:45:33.501Z,3.35
2022-10-21T16:49:36.255Z,2.20
2022-10-21T16:53:40.632Z,1.85
2022-10-21T16:57:43.507Z,1.80
2022-10-21T17:01:46.242Z,2.67
2022-10-21T17:05:50.268Z,3.42
2022-10-21T17:09:54.319Z,2.00
2022-10-21T17:13:57.081Z,2.28
2022-10-21T17:18:00.524Z,2.63
2022-10-21T17:22:03.234Z,2.85
2022-10-21T17:26:07.388Z,3.58
2022-10-21T17:30:12.187Z,6.65
2022-10-21T17:34:26.614Z,3.53
2022-10-21T17:38:29.294Z,3.65
2022-10-21T17:42:33.350Z,3.25
2022-10-21T17:46:36.067Z,3.75
2022-10-21T17:50:38.889Z,3.95
2022-10-21T17:54:41.760Z,2.72
2022-10-21T17:58:46.018Z,2.58
2022-10-21T18:02:48.746Z,2.42
2022-10-21T18:06:51.437Z,2.25
2022-10-21T18:10:55.360Z,2.20
2022-10-21T18:14:59.603Z,1.85
2022-10-21T18:19:03.190Z,2.60
2022-10-21T18:23:06.240Z,2.17
2022-10-21T18:27:09.139Z,2.22
2022-10-21T18:31:13.419Z,2.22
2022-10-21T18:35:16.513Z,2.47
2022-10-21T18:39:19.794Z,2.70
2022-10-21T18:43:22.465Z,1.88
2022-10-21T18:47:27.976Z,2.42
2022-10-21T18:51:30.746Z,1.40
2022-10-21T18:55:33.409Z,1.88
2022-10-21T18:59:36.560Z,2.97
2022-10-21T19:03:40.697Z,1.60
2022-10-21T19:07:43.415Z,1.15
2022-10-21T19:11:46.571Z,1.50
2022-10-21T19:15:49.259Z,1.50
2022-10-21T19:19:53.318Z,1.80
2022-10-21T19:23:59.787Z,2.97
2022-10-21T19:28:02.569Z,2.30
2022-10-21T19:32:05.418Z,2.72
2022-10-21T19:36:11.225Z,1.27
2022-10-21T19:40:13.964Z,1.33
2022-10-21T19:44:16.645Z,1.60
2022-10-21T19:48:19.540Z,1.17
2022-10-21T19:52:23.546Z,1.38
2022-10-21T19:56:30.761Z,1.20
2022-10-21T20:00:35.052Z,1.67
2022-10-21T20:04:37.779Z,1.55
2022-10-21T20:08:42.542Z,1.60
2022-10-21T20:12:45.284Z,1.42
2022-10-21T20:16:50.659Z,1.88
2022-10-21T20:20:53.592Z,3.80
2022-10-21T20:24:57.660Z,3.50
2022-10-21T20:29:01.951Z,1.33
2022-10-21T20:33:04.911Z,3.15
2022-10-21T20:37:07.595Z,5.18
2022-10-21T20:41:14.434Z,4.68
2022-10-21T20:45:17.142Z,3.55
2022-10-21T20:49:19.870Z,2.80
2022-10-21T20:53:22.617Z,2.67
2022-10-21T20:57:26.731Z,2.90
2022-10-21T21:01:32.075Z,2.20
2022-10-21T21:05:38.848Z,2.28
2022-10-21T21:10:01.792Z,1.92
2022-10-21T21:14:06.339Z,1.88
2022-10-21T21:18:11.480Z,2.58
2022-10-21T21:22:14.184Z,3.00
2022-10-21T21:26:19.942Z,3.00
2022-10-21T21:30:24.100Z,1.40
2022-10-21T21:34:26.826Z,1.30
2022-10-21T21:38:29.754Z,1.25
2022-10-21T21:42:32.578Z,1.65
2022-10-21T21:46:36.612Z,2.00
2022-10-21T21:50:39.322Z,2.80
2022-10-21T21:54:42.016Z,2.65
2022-10-21T21:58:44.715Z,2.63
2022-10-21T22:02:48.774Z,2.13
2022-10-21T22:06:51.496Z,1.77
2022-10-21T22:10:54.174Z,2.30
2022-10-21T22:14:56.889Z,2.53
2022-10-21T22:19:01.651Z,2.80
2022-10-21T22:23:04.335Z,2.40
2022-10-21T22:27:07.076Z,2.45
2022-10-21T22:31:12.547Z,2.00
2022-10-21T22:35:16.615Z,2.00
2022-10-21T22:39:19.292Z,1.80
2022-10-21T22:43:22.015Z,2.00
2022-10-21T22:47:24.914Z,1.75
2022-10-21T22:51:29.008Z,1.85
2022-10-21T22:55:31.696Z,2.17
2022-10-21T22:59:35.395Z,2.17
2022-10-21T23:03:38.274Z,2.58
2022-10-21T23:07:42.428Z,2.47
2022-10-21T23:11:47.041Z,3.50
2022-10-21T23:15:49.677Z,5.88
2022-10-21T23:19:52.458Z,5.35
2022-10-21T23:23:56.643Z,7.28
2022-10-21T23:27:59.353Z,7.15
2022-10-21T23:32:02.147Z,6.75
2022-10-21T23:36:05.308Z,5.30
2022-10-21T23:40:10.935Z,5.63
2022-10-21T23:44:13.749Z,4.17
2022-10-21T23:48:16.454Z,3.03
2022-10-21T23:52:19.112Z,2.65
2022-10-21T23:56:23.191Z,2.35
